Angelina County Airport
KLFK : now visible

Airfield :











YOU CAN JOIN US ON...

 
LOGIN :

Register | Disclaimer

   EN    FR    IT 

 









Legend :    VFR   Marginal VFR   IFR   Intensive IFR   Very Intensive IFR
Visi :
Ceiling :
>= 8 km
>= 3000ft
5 to 8 km
1000 to 3000 ft
1500m to 5 km
500 to 1000 ft
800 to 1500m
200 to 500 ft
< 800m
< 200 ft
Symbols :   Thunderstorms  Fog  Heavy snow  Heavy precipitations  Wind > 20 kt






- Airport Elevation : 296 ft


KLFK - Angelina County

CURRENT METAR :
  • 122353Z AUTO 34004KT 10SM CLR 03/M07 A3043 RMK AO2 SLP304 T00281072 10072 20028 56003

EXPIRED METARs :
  • 122253Z AUTO 35005KT 10SM CLR 05/M08 A3043 RMK AO2 SLP306 T00501078
  • 122153Z AUTO 35008KT 10SM CLR 06/M08 A3043 RMK AO2 SLP306 T00611078

TAF KLFK
Valid from the 13 at 00:00 until the 14 at 00:00 UTC


122342Z 1300/1324 35005KT P6SM SKC
FM130400 VRB03KT P6SM SKC
FM131300 16008KT P6SM SKC



MET'MAP, your aeronautical weather chart ! - Copyright ORBIFLY December 2007 - Disclaimer

ORBIFLY MET'MAP TEAM :

Programming & Development : Alexandra Zaïnal
Concept & Development : Baudouin d'Aumeries
Co-Development & Prog : Marc-Olivier Méhu
Technical & hardware support : Manuel Goepfert

Contact : metmap@orbifly.com




SOURCES & CREDITS :

   NOAA       Earth
Advisory